createdAt,value
2017-11-24T00:00:00.284Z,10.00
2017-11-24T00:02:27.703Z,10.00
2017-11-24T00:04:55.127Z,10.00
2017-11-24T00:07:22.539Z,9.90
2017-11-24T00:09:49.953Z,9.90
2017-11-24T00:12:17.365Z,9.90
2017-11-24T00:14:44.771Z,9.90
2017-11-24T00:17:12.955Z,9.90
2017-11-24T00:19:41.134Z,9.80
2017-11-24T00:22:08.596Z,9.80
2017-11-24T00:24:36.115Z,9.80
2017-11-24T00:27:03.567Z,9.80
2017-11-24T00:29:31.169Z,9.80
2017-11-24T00:31:58.582Z,9.80
2017-11-24T00:34:26.801Z,9.70
2017-11-24T00:36:54.209Z,9.70
2017-11-24T00:39:21.615Z,9.70
2017-11-24T00:41:49.817Z,9.70
2017-11-24T00:44:17.292Z,9.70
2017-11-24T00:46:44.729Z,9.60
2017-11-24T00:49:12.922Z,9.60
2017-11-24T00:51:41.087Z,9.60
2017-11-24T00:54:08.501Z,9.60
2017-11-24T00:56:35.969Z,9.60
2017-11-24T00:59:03.450Z,9.50
2017-11-24T01:01:30.852Z,9.50
2017-11-24T01:03:58.379Z,9.50
2017-11-24T01:06:25.793Z,9.50
2017-11-24T01:08:58.880Z,9.50
2017-11-24T01:11:26.287Z,9.50
2017-11-24T01:13:54.495Z,9.50
2017-11-24T01:16:21.960Z,9.50
2017-11-24T01:18:49.372Z,9.50
2017-11-24T01:21:16.783Z,9.50
2017-11-24T01:23:44.985Z,9.50
2017-11-24T01:26:12.393Z,9.50
2017-11-24T01:28:39.803Z,9.50
2017-11-24T01:31:07.976Z,9.40
2017-11-24T01:33:36.202Z,9.40
2017-11-24T01:36:04.373Z,9.50
2017-11-24T01:38:32.546Z,9.50
2017-11-24T01:41:00.959Z,9.50
2017-11-24T01:43:28.356Z,9.40
2017-11-24T01:45:55.799Z,9.50
2017-11-24T01:48:23.207Z,9.40
2017-11-24T01:50:50.610Z,9.40
2017-11-24T01:53:18.792Z,9.30
2017-11-24T01:55:46.958Z,9.40
2017-11-24T01:58:14.378Z,9.30
2017-11-24T02:00:41.787Z,9.30
2017-11-24T02:03:09.340Z,9.40
2017-11-24T02:05:36.751Z,9.30
2017-11-24T02:08:04.964Z,9.40
2017-11-24T02:10:32.367Z,9.30
2017-11-24T02:12:59.783Z,9.30
2017-11-24T02:15:27.967Z,9.20
2017-11-24T02:17:55.388Z,9.20
2017-11-24T02:20:22.798Z,9.20
2017-11-24T02:22:50.983Z,9.20
2017-11-24T02:25:19.155Z,9.20
2017-11-24T02:27:47.337Z,9.20
2017-11-24T02:30:14.751Z,9.20
2017-11-24T02:32:42.211Z,9.20
2017-11-24T02:35:09.699Z,9.20
2017-11-24T02:37:37.096Z,9.10
2017-11-24T02:40:04.516Z,9.10
2017-11-24T02:42:32.009Z,9.10
2017-11-24T02:44:59.416Z,9.10
2017-11-24T02:47:26.826Z,9.20
2017-11-24T02:49:54.240Z,9.20
2017-11-24T02:52:21.653Z,9.20
2017-11-24T02:54:49.063Z,9.20
2017-11-24T02:57:16.478Z,9.20
2017-11-24T02:59:44.663Z,9.20
2017-11-24T03:02:12.858Z,9.20
2017-11-24T03:04:40.322Z,9.20
2017-11-24T03:07:07.811Z,9.20
2017-11-24T03:09:35.288Z,9.20
2017-11-24T03:12:02.757Z,9.20
2017-11-24T03:14:30.174Z,9.10
2017-11-24T03:16:59.088Z,9.10
2017-11-24T03:19:27.272Z,9.10
2017-11-24T03:21:55.479Z,9.10
2017-11-24T03:24:22.887Z,9.10
2017-11-24T03:26:50.294Z,9.10
2017-11-24T03:29:18.507Z,9.20
2017-11-24T03:31:45.976Z,9.10
2017-11-24T03:34:13.384Z,9.20
2017-11-24T03:36:40.788Z,9.20
2017-11-24T03:39:08.962Z,9.30
2017-11-24T03:41:36.473Z,9.30
2017-11-24T03:44:04.626Z,9.40
2017-11-24T03:46:32.805Z,9.40
2017-11-24T03:49:00.213Z,9.40
2017-11-24T03:51:27.614Z,9.50
2017-11-24T03:53:55.022Z,9.50
2017-11-24T03:56:23.195Z,9.50
2017-11-24T03:58:51.367Z,9.60
2017-11-24T04:01:18.781Z,9.50
2017-11-24T04:03:46.183Z,9.60
2017-11-24T04:06:13.604Z,9.60
2017-11-24T04:08:41.003Z,9.60
2017-11-24T04:11:08.433Z,9.60
2017-11-24T04:13:36.601Z,9.70
2017-11-24T04:16:04.007Z,9.70
2017-11-24T04:18:31.467Z,9.60
2017-11-24T04:20:58.884Z,9.60
2017-11-24T04:23:26.301Z,9.60
2017-11-24T04:25:53.708Z,9.60
2017-11-24T04:28:21.142Z,9.60
2017-11-24T04:30:48.561Z,9.50
2017-11-24T04:33:15.971Z,9.50
2017-11-24T04:35:43.446Z,9.50
2017-11-24T04:38:10.907Z,9.60
2017-11-24T04:40:38.367Z,9.60
2017-11-24T04:43:05.855Z,9.70
2017-11-24T04:45:33.331Z,9.60
2017-11-24T04:48:00.751Z,9.70
2017-11-24T04:50:28.267Z,9.70
2017-11-24T04:52:55.679Z,9.70
2017-11-24T04:55:23.078Z,9.80
2017-11-24T04:57:51.288Z,9.70
2017-11-24T05:00:18.691Z,9.70
2017-11-24T05:02:46.125Z,9.70
2017-11-24T05:05:14.303Z,9.80
2017-11-24T05:07:41.716Z,9.80
2017-11-24T05:10:09.163Z,9.80
2017-11-24T05:12:36.614Z,9.80
2017-11-24T05:15:04.787Z,9.90
2017-11-24T05:17:32.195Z,9.90
2017-11-24T05:19:59.619Z,9.90
2017-11-24T05:22:27.107Z,9.90
2017-11-24T05:24:54.569Z,9.90
2017-11-24T05:27:21.985Z,9.90
2017-11-24T05:29:49.399Z,9.90
2017-11-24T05:32:17.001Z,9.90
2017-11-24T05:34:44.415Z,9.90
2017-11-24T05:37:12.635Z,9.90
2017-11-24T05:39:40.104Z,9.80
2017-11-24T05:42:07.520Z,9.80
2017-11-24T05:44:34.929Z,9.80
2017-11-24T05:47:02.344Z,9.70
2017-11-24T05:49:29.749Z,9.70
2017-11-24T05:51:57.976Z,9.60
2017-11-24T05:54:25.384Z,9.60
2017-11-24T05:56:52.883Z,9.50
2017-11-24T05:59:20.345Z,9.50
2017-11-24T06:01:48.514Z,9.50
2017-11-24T06:04:16.710Z,9.50
2017-11-24T06:06:44.883Z,9.50
2017-11-24T06:09:13.063Z,9.50
2017-11-24T06:11:40.553Z,9.50
2017-11-24T06:14:08.728Z,9.50
2017-11-24T06:16:36.949Z,9.40
2017-11-24T06:19:04.411Z,9.40
2017-11-24T06:21:32.604Z,9.20
2017-11-24T06:24:00.035Z,9.20
2017-11-24T06:26:27.448Z,9.20
2017-11-24T06:28:54.891Z,9.10
2017-11-24T06:31:22.332Z,9.10
2017-11-24T06:33:49.746Z,9.20
2017-11-24T06:36:17.168Z,9.20
2017-11-24T06:38:44.579Z,9.30
2017-11-24T06:41:11.994Z,9.30
2017-11-24T06:43:39.408Z,9.40
2017-11-24T06:46:06.887Z,9.50
2017-11-24T06:48:34.356Z,9.50
2017-11-24T06:51:01.764Z,9.50
2017-11-24T06:53:29.182Z,9.40
2017-11-24T06:55:56.657Z,9.40
2017-11-24T06:58:24.058Z,9.40
2017-11-24T07:00:51.478Z,9.40
2017-11-24T07:03:18.889Z,9.40
2017-11-24T07:05:46.292Z,9.40
2017-11-24T07:08:14.485Z,9.40
2017-11-24T07:10:42.703Z,9.40
2017-11-24T07:13:10.856Z,9.40
2017-11-24T07:15:39.063Z,9.40
2017-11-24T07:18:06.478Z,9.40
2017-11-24T07:20:33.922Z,9.40
2017-11-24T07:23:01.485Z,9.40
2017-11-24T07:25:28.878Z,9.40
2017-11-24T07:27:56.296Z,9.40
2017-11-24T07:30:23.795Z,9.20
2017-11-24T07:32:51.211Z,9.20
2017-11-24T07:35:18.721Z,9.10
2017-11-24T07:37:46.124Z,9.00
2017-11-24T07:40:13.531Z,9.00
2017-11-24T07:42:41.703Z,9.00
2017-11-24T07:45:09.216Z,9.00
2017-11-24T07:47:37.419Z,8.90
2017-11-24T07:50:04.846Z,8.90
2017-11-24T07:52:33.055Z,9.00
2017-11-24T07:55:01.256Z,9.00
2017-11-24T07:57:28.658Z,9.00
2017-11-24T07:59:56.287Z,9.00
2017-11-24T08:02:23.688Z,8.90
2017-11-24T08:04:51.092Z,9.00
2017-11-24T08:07:19.293Z,9.00
2017-11-24T08:09:46.699Z,9.00
2017-11-24T08:12:14.128Z,9.00
2017-11-24T08:14:41.603Z,9.00
2017-11-24T08:17:09.028Z,8.90
2017-11-24T08:19:36.458Z,8.90
2017-11-24T08:22:03.859Z,8.90
2017-11-24T08:24:31.291Z,8.80
2017-11-24T08:26:58.753Z,8.60
2017-11-24T08:29:26.160Z,8.60
2017-11-24T08:31:53.576Z,8.60
2017-11-24T08:34:21.012Z,8.60
2017-11-24T08:36:48.421Z,8.60
2017-11-24T08:39:15.829Z,8.50
2017-11-24T08:41:43.240Z,8.50
2017-11-24T08:44:10.635Z,8.50
2017-11-24T08:46:43.811Z,8.50
2017-11-24T08:49:17.770Z,8.60
2017-11-24T08:51:45.192Z,8.60
2017-11-24T08:54:13.364Z,8.70
2017-11-24T08:56:40.781Z,8.70
2017-11-24T08:59:08.243Z,8.80
2017-11-24T09:01:36.411Z,8.90
2017-11-24T09:04:04.587Z,8.90
2017-11-24T09:06:32.777Z,9.00
2017-11-24T09:09:00.960Z,9.00
2017-11-24T09:11:28.396Z,9.00
2017-11-24T09:13:55.783Z,9.10
2017-11-24T09:16:23.968Z,9.00
2017-11-24T09:18:52.139Z,9.10
2017-11-24T09:21:19.547Z,9.10
2017-11-24T09:23:46.960Z,9.10
2017-11-24T09:26:14.399Z,9.10
2017-11-24T09:28:42.695Z,9.10
2017-11-24T09:31:10.154Z,9.10
2017-11-24T09:33:37.544Z,9.10
2017-11-24T09:36:04.976Z,9.10
2017-11-24T09:38:32.452Z,9.10
2017-11-24T09:40:59.915Z,9.10
2017-11-24T09:43:27.324Z,9.10
2017-11-24T09:45:54.724Z,9.10
2017-11-24T09:48:22.131Z,9.10
2017-11-24T09:50:49.531Z,9.20
2017-11-24T09:53:16.964Z,9.20
2017-11-24T09:55:44.389Z,9.30
2017-11-24T09:58:13.306Z,9.20
2017-11-24T10:00:41.508Z,9.20
2017-11-24T10:03:09.019Z,9.20
2017-11-24T10:05:36.457Z,9.20
2017-11-24T10:08:04.611Z,9.10
2017-11-24T10:10:32.829Z,9.10
2017-11-24T10:13:00.227Z,9.10
2017-11-24T10:15:27.654Z,9.10
2017-11-24T10:17:55.083Z,9.20
2017-11-24T10:20:22.475Z,9.30
2017-11-24T10:22:50.692Z,9.30
2017-11-24T10:25:18.179Z,9.30
2017-11-24T10:27:45.629Z,9.30
2017-11-24T10:30:13.019Z,9.30
2017-11-24T10:32:40.458Z,9.30
2017-11-24T10:35:07.881Z,9.20
2017-11-24T10:37:35.395Z,9.20
2017-11-24T10:40:02.838Z,9.10
2017-11-24T10:42:30.327Z,9.10
2017-11-24T10:44:57.791Z,9.20
2017-11-24T10:47:25.284Z,9.40
2017-11-24T10:49:52.674Z,9.50
2017-11-24T10:52:20.091Z,9.60
2017-11-24T10:54:48.283Z,9.90
2017-11-24T10:57:15.764Z,9.90
2017-11-24T10:59:43.167Z,10.00
2017-11-24T11:02:10.591Z,10.00
2017-11-24T11:04:38.004Z,10.10
2017-11-24T11:07:05.431Z,10.20
2017-11-24T11:09:32.847Z,10.40
2017-11-24T11:12:00.287Z,10.60
2017-11-24T11:14:27.676Z,10.60
2017-11-24T11:16:55.087Z,10.50
2017-11-24T11:19:22.585Z,10.20
2017-11-24T11:21:49.971Z,10.10
2017-11-24T11:24:17.405Z,9.90
2017-11-24T11:26:44.805Z,9.80
2017-11-24T11:29:12.228Z,9.80
2017-11-24T11:31:39.705Z,9.70
2017-11-24T11:34:07.128Z,9.70
2017-11-24T11:36:34.535Z,9.60
2017-11-24T11:39:02.013Z,9.50
2017-11-24T11:41:29.415Z,9.50
2017-11-24T11:43:56.836Z,9.40
2017-11-24T11:46:25.008Z,9.30
2017-11-24T11:48:53.199Z,9.30
2017-11-24T11:51:21.364Z,9.20
2017-11-24T11:53:48.769Z,9.20
2017-11-24T11:56:16.175Z,9.20
2017-11-24T11:58:43.611Z,9.20
2017-11-24T12:01:11.017Z,9.20
2017-11-24T12:03:38.429Z,9.30
2017-11-24T12:06:06.595Z,9.30
2017-11-24T12:08:34.108Z,9.30
2017-11-24T12:11:01.596Z,9.30
2017-11-24T12:13:29.035Z,9.40
2017-11-24T12:15:56.449Z,9.50
2017-11-24T12:18:23.877Z,9.40
2017-11-24T12:20:52.027Z,9.40
2017-11-24T12:23:19.427Z,9.40
2017-11-24T12:25:46.831Z,9.50
2017-11-24T12:28:14.264Z,9.50
2017-11-24T12:30:42.454Z,9.70
2017-11-24T12:33:10.622Z,9.90
2017-11-24T12:35:38.816Z,9.90
2017-11-24T12:38:06.295Z,9.90
2017-11-24T12:40:33.743Z,10.00
2017-11-24T12:43:01.945Z,9.90
2017-11-24T12:45:29.354Z,9.90
2017-11-24T12:47:56.783Z,9.90
2017-11-24T12:50:24.240Z,9.80
2017-11-24T12:52:51.656Z,9.70
2017-11-24T12:55:19.065Z,9.70
2017-11-24T12:57:47.273Z,9.40
2017-11-24T13:00:15.429Z,9.30
2017-11-24T13:02:43.616Z,9.20
2017-11-24T13:05:11.831Z,9.20
2017-11-24T13:07:39.991Z,9.20
2017-11-24T13:10:08.151Z,9.00
2017-11-24T13:12:35.687Z,9.00
2017-11-24T13:15:03.317Z,9.00
2017-11-24T13:17:31.546Z,9.00
2017-11-24T13:19:58.951Z,9.00
2017-11-24T13:22:27.867Z,8.90
2017-11-24T13:24:56.050Z,8.90
2017-11-24T13:27:23.458Z,8.80
2017-11-24T13:29:51.026Z,8.90
2017-11-24T13:32:19.204Z,8.80
2017-11-24T13:34:46.628Z,8.80
2017-11-24T13:37:14.031Z,8.80
2017-11-24T13:39:41.626Z,8.80
2017-11-24T13:42:09.785Z,8.70
2017-11-24T13:44:37.961Z,8.70
2017-11-24T13:47:06.141Z,8.80
2017-11-24T13:49:34.353Z,8.80
2017-11-24T13:52:01.776Z,8.80
2017-11-24T13:54:30.016Z,8.80
2017-11-24T13:56:57.489Z,8.70
2017-11-24T13:59:24.919Z,8.80
2017-11-24T14:01:53.235Z,8.80
2017-11-24T14:04:20.646Z,8.80
2017-11-24T14:06:48.088Z,8.80
2017-11-24T14:09:15.498Z,8.80
2017-11-24T14:11:43.025Z,8.80
2017-11-24T14:14:10.416Z,8.80
2017-11-24T14:16:37.824Z,8.70
2017-11-24T14:19:06.042Z,8.70
2017-11-24T14:21:33.443Z,8.70
2017-11-24T14:24:00.890Z,8.70
2017-11-24T14:26:28.342Z,8.80
2017-11-24T14:28:56.487Z,8.70
2017-11-24T14:31:23.893Z,8.70
2017-11-24T14:33:51.304Z,8.70
2017-11-24T14:36:18.719Z,8.70
2017-11-24T14:38:46.201Z,8.70
2017-11-24T14:41:13.612Z,8.70
2017-11-24T14:43:41.128Z,8.70
2017-11-24T14:46:08.540Z,8.70
2017-11-24T14:48:35.981Z,8.60
2017-11-24T14:51:03.389Z,8.60
2017-11-24T14:53:30.794Z,8.60
2017-11-24T14:55:58.277Z,8.50
2017-11-24T14:58:25.687Z,8.50
2017-11-24T15:00:53.099Z,8.50
2017-11-24T15:03:20.601Z,8.40
2017-11-24T15:05:47.987Z,8.40
2017-11-24T15:08:15.416Z,8.30
2017-11-24T15:10:42.828Z,8.30
2017-11-24T15:13:10.233Z,8.40
2017-11-24T15:15:38.420Z,8.30
2017-11-24T15:18:05.824Z,8.30
2017-11-24T15:20:33.392Z,8.30
2017-11-24T15:23:00.789Z,8.30
2017-11-24T15:25:28.195Z,8.30
2017-11-24T15:27:55.620Z,8.30
2017-11-24T15:30:23.153Z,8.20
2017-11-24T15:32:51.294Z,8.30
2017-11-24T15:35:19.015Z,8.30
2017-11-24T15:37:47.291Z,8.30
2017-11-24T15:40:14.696Z,8.30
2017-11-24T15:42:42.100Z,8.30
2017-11-24T15:45:10.336Z,8.30
2017-11-24T15:47:37.731Z,8.30
2017-11-24T15:50:05.177Z,8.30
2017-11-24T15:52:32.593Z,8.30
2017-11-24T15:55:00.025Z,8.30
2017-11-24T15:57:27.644Z,8.20
2017-11-24T15:59:55.953Z,8.10
2017-11-24T16:02:23.355Z,8.10
2017-11-24T16:04:50.781Z,8.10
2017-11-24T16:07:18.959Z,8.10
2017-11-24T16:09:46.376Z,8.10
2017-11-24T16:12:13.783Z,8.10
2017-11-24T16:14:41.958Z,8.10
2017-11-24T16:17:09.359Z,8.10
2017-11-24T16:19:36.784Z,8.10
2017-11-24T16:22:04.303Z,8.00
2017-11-24T16:24:31.831Z,8.00
2017-11-24T16:26:59.346Z,8.00
2017-11-24T16:29:26.761Z,8.00
2017-11-24T16:31:54.175Z,7.90
2017-11-24T16:34:21.641Z,7.90
2017-11-24T16:36:49.057Z,7.90
2017-11-24T16:39:16.588Z,7.90
2017-11-24T16:41:44.739Z,7.80
2017-11-24T16:44:12.912Z,7.80
2017-11-24T16:46:40.430Z,7.80
2017-11-24T16:49:07.823Z,7.70
2017-11-24T16:51:35.237Z,7.80
2017-11-24T16:54:03.508Z,7.70
2017-11-24T16:56:30.919Z,7.70
2017-11-24T16:58:58.376Z,7.70
2017-11-24T17:01:25.857Z,7.80
2017-11-24T17:03:53.323Z,7.80
2017-11-24T17:06:20.740Z,7.80
2017-11-24T17:08:48.180Z,7.80
2017-11-24T17:11:15.583Z,7.80
2017-11-24T17:13:43.092Z,7.90
2017-11-24T17:16:10.511Z,7.90
2017-11-24T17:18:39.463Z,7.80
2017-11-24T17:21:06.895Z,7.80
2017-11-24T17:23:34.408Z,7.90
2017-11-24T17:26:01.893Z,7.90
2017-11-24T17:28:29.303Z,7.80
2017-11-24T17:30:57.488Z,7.90
2017-11-24T17:33:24.896Z,7.90
2017-11-24T17:35:52.356Z,7.90
2017-11-24T17:38:19.767Z,7.90
2017-11-24T17:40:47.181Z,7.90
2017-11-24T17:43:15.354Z,7.90
2017-11-24T17:45:42.859Z,7.90
2017-11-24T17:48:10.256Z,7.90
2017-11-24T17:50:37.667Z,8.00
2017-11-24T17:53:05.870Z,7.90
2017-11-24T17:55:33.283Z,7.90
2017-11-24T17:58:00.703Z,7.90
2017-11-24T18:00:28.124Z,7.90
2017-11-24T18:02:55.652Z,7.90
2017-11-24T18:05:23.816Z,7.90
2017-11-24T18:07:52.025Z,7.90
2017-11-24T18:10:19.430Z,7.90
2017-11-24T18:12:46.982Z,7.90
2017-11-24T18:15:14.388Z,7.90
2017-11-24T18:17:43.336Z,7.80
2017-11-24T18:20:11.517Z,7.70
2017-11-24T18:22:38.981Z,7.70
2017-11-24T18:25:06.447Z,7.70
2017-11-24T18:27:33.900Z,7.60
2017-11-24T18:30:01.402Z,7.60
2017-11-24T18:32:28.855Z,7.60
2017-11-24T18:34:56.264Z,7.50
2017-11-24T18:37:23.693Z,7.80
2017-11-24T18:39:51.171Z,7.80
2017-11-24T18:42:18.638Z,7.80
2017-11-24T18:44:46.792Z,7.60
2017-11-24T18:47:14.969Z,7.60
2017-11-24T18:49:42.385Z,7.60
2017-11-24T18:52:09.798Z,7.50
2017-11-24T18:54:37.418Z,7.50
2017-11-24T18:57:05.604Z,7.40
2017-11-24T18:59:33.079Z,7.40
2017-11-24T19:02:00.496Z,7.40
2017-11-24T19:04:28.000Z,7.40
2017-11-24T19:06:55.420Z,7.40
2017-11-24T19:09:22.840Z,7.30
2017-11-24T19:11:50.336Z,7.30
2017-11-24T19:14:17.730Z,7.30
2017-11-24T19:16:45.149Z,7.20
2017-11-24T19:19:12.553Z,7.20
2017-11-24T19:21:39.983Z,7.20
2017-11-24T19:24:07.428Z,7.20
2017-11-24T19:26:35.601Z,7.10
2017-11-24T19:29:03.019Z,7.10
2017-11-24T19:31:30.470Z,7.10
2017-11-24T19:33:57.880Z,7.10
2017-11-24T19:36:25.297Z,7.00
2017-11-24T19:38:53.475Z,7.00
2017-11-24T19:41:21.658Z,7.00
2017-11-24T19:43:49.832Z,7.00
2017-11-24T19:46:17.241Z,7.00
2017-11-24T19:48:44.713Z,7.00
2017-11-24T19:51:12.111Z,6.90
2017-11-24T19:53:39.531Z,6.90
2017-11-24T19:56:06.952Z,6.90
2017-11-24T19:58:34.485Z,6.90
2017-11-24T20:01:02.639Z,6.90
2017-11-24T20:03:30.824Z,6.90
2017-11-24T20:05:59.019Z,6.90
2017-11-24T20:08:26.455Z,6.90
2017-11-24T20:10:53.872Z,6.90
2017-11-24T20:13:21.332Z,6.80
2017-11-24T20:15:48.755Z,6.70
2017-11-24T20:18:16.176Z,6.70
2017-11-24T20:20:43.579Z,6.70
2017-11-24T20:23:10.987Z,6.70
2017-11-24T20:25:39.167Z,6.70
2017-11-24T20:28:07.386Z,6.70
2017-11-24T20:30:35.018Z,6.70
2017-11-24T20:33:02.423Z,6.70
2017-11-24T20:35:29.844Z,6.70
2017-11-24T20:37:57.354Z,6.70
2017-11-24T20:40:24.773Z,6.70
2017-11-24T20:42:52.298Z,6.70
2017-11-24T20:45:19.691Z,6.60
2017-11-24T20:47:47.116Z,6.60
2017-11-24T20:50:15.286Z,6.60
2017-11-24T20:52:43.458Z,6.50
2017-11-24T20:55:10.967Z,6.50
2017-11-24T20:57:38.444Z,6.60
2017-11-24T21:00:05.856Z,6.60
2017-11-24T21:02:33.325Z,6.60
2017-11-24T21:05:00.740Z,6.60
2017-11-24T21:07:28.235Z,6.60
2017-11-24T21:09:55.651Z,6.60
2017-11-24T21:12:23.822Z,6.60
2017-11-24T21:14:51.232Z,6.50
2017-11-24T21:17:18.655Z,6.60
2017-11-24T21:19:46.076Z,6.60
2017-11-24T21:22:13.546Z,6.60
2017-11-24T21:24:41.019Z,6.60
2017-11-24T21:27:08.418Z,6.70
2017-11-24T21:29:35.857Z,6.70
2017-11-24T21:32:03.315Z,6.60
2017-11-24T21:34:30.728Z,6.50
2017-11-24T21:36:58.131Z,6.50
2017-11-24T21:39:26.314Z,6.50
2017-11-24T21:41:54.520Z,6.50
2017-11-24T21:44:21.999Z,6.50
2017-11-24T21:46:49.566Z,6.50
2017-11-24T21:49:17.024Z,6.50
2017-11-24T21:51:44.434Z,6.50
2017-11-24T21:54:11.869Z,6.50
2017-11-24T21:56:39.337Z,6.50
2017-11-24T21:59:06.804Z,6.50
2017-11-24T22:01:34.225Z,6.50
2017-11-24T22:04:01.751Z,6.50
2017-11-24T22:06:29.175Z,6.50
2017-11-24T22:08:57.362Z,6.30
2017-11-24T22:11:24.768Z,6.30
2017-11-24T22:13:52.184Z,6.30
2017-11-24T22:16:19.710Z,6.30
2017-11-24T22:18:47.116Z,6.30
2017-11-24T22:21:14.543Z,6.30
2017-11-24T22:23:41.951Z,6.30
2017-11-24T22:26:09.387Z,6.30
2017-11-24T22:28:36.790Z,6.30
2017-11-24T22:31:04.243Z,6.20
2017-11-24T22:33:31.646Z,6.30
2017-11-24T22:35:59.139Z,6.20
2017-11-24T22:38:26.552Z,6.20
2017-11-24T22:40:53.962Z,6.30
2017-11-24T22:43:22.277Z,6.20
2017-11-24T22:45:50.431Z,6.20
2017-11-24T22:48:18.643Z,6.10
2017-11-24T22:50:46.052Z,6.00
2017-11-24T22:53:13.486Z,6.00
2017-11-24T22:55:40.879Z,6.00
2017-11-24T22:58:08.297Z,6.00
2017-11-24T23:00:36.471Z,6.20
2017-11-24T23:03:04.697Z,6.30
2017-11-24T23:05:32.155Z,6.30
2017-11-24T23:07:59.564Z,6.30
2017-11-24T23:10:26.971Z,6.30
2017-11-24T23:12:54.393Z,6.40
2017-11-24T23:15:21.795Z,6.40
2017-11-24T23:17:49.967Z,6.40
2017-11-24T23:20:17.394Z,6.40
2017-11-24T23:22:44.847Z,6.40
2017-11-24T23:25:12.324Z,6.30
2017-11-24T23:27:39.742Z,6.30
2017-11-24T23:30:07.258Z,6.10
2017-11-24T23:32:35.435Z,6.10
2017-11-24T23:35:02.870Z,6.10
2017-11-24T23:37:31.783Z,6.20
2017-11-24T23:40:00.009Z,6.30
2017-11-24T23:42:27.414Z,6.30
2017-11-24T23:44:55.047Z,6.40
2017-11-24T23:47:22.431Z,6.50
2017-11-24T23:49:49.859Z,6.50
2017-11-24T23:52:18.044Z,6.20
2017-11-24T23:54:46.242Z,6.30
2017-11-24T23:57:13.680Z,6.20
2017-11-24T23:59:41.863Z,6.30
